North Platte, NE

8:01 PM CDT on May 22, 2017 (GMT -0500)
Mall Area -- KR1STO | | Change Station

Elev 2815 ft 41.13 °N, 100.76 °W | Updated 20 seconds ago

Overcast
Overcast
56.3 °F
Feels Like 56.3 °F
N
5.8
Wind Variable Wind from NW
Gusts 14.5 mph

Today
High -- | Low -- °F
--% Chance of Precip.
Yesterday
High -- | Low -- °F
Precip. -- in
Pressure 29.99 in
Visibility 10.0 miles
Clouds Overcast 7500 ft
Dew Point 43 °F
Humidity 60%
Rainfall 0.02 in
Snow Depth Not available.
6:18 AM 9:01 PM
Waning Crescent, 11% visible
METAR KLBF 230053Z AUTO 01017G22KT 10SM OVC075 13/06 A3000 RMK AO2 RAB27E50 SLP156 P0000 T01330056
Pressure 29.99 in
Visibility 10.0 miles
Clouds Overcast 7500 ft
Dew Point 43 °F
Humidity 60%
Rainfall 0.02 in
Snow Depth Not available.
6:18 AM 9:01 PM
Waning Crescent, 11% visible
METAR KLBF 230053Z AUTO 01017G22KT 10SM OVC075 13/06 A3000 RMK AO2 RAB27E50 SLP156 P0000 T01330056

Get Severe Weather Alerts

Thanks for signing up!

Be on the lookout for a verification email in your inbox.

You'll start receiving the daily forecast at 6 AM.

×

10-Day Weather Forecast

Almanac

Astronomy

May. 22, 2017 Rise Set
Actual Time
Civil Twilight
Nautical Twilight
Astronomical Twilight
Moon
Length of Visible Light
Length of Day
Tomorrow will be .
, % of the Moon is Illuminated

Today's Extremes

State Highs State Lows

Community

WunderPhotos

Category 6

Welcome to Category 6. This is the collective home for Weather Underground's featured writeups by Dr. Jeff Masters (right), Bob Henson (left), Chris Burt, and other regular contributors.

Nearby

Air Quality

  Air Quality AQ Index Pollutant
Not available.

Snow Depth

Station Depth Elevation

Earthquake Activity

City Distance Mag. Time & Date
Minimum magnitude displayed is 2.5.

Coastal Water Temperatures

Place Temperature

Stations

Nearby Weather Stations

Station Location Temp. Windchill Dew Point Humidity Wind Precip. Elev Updated Type
                   

Watches & Warnings

There are currently no watches in effect.